Time;durP1;ratioP1;P1;durP2;ratioP2;P2;SDS_P1;SDS_P2;PMS_P1;PMS_P2;Temp;Humidity;BMP_temperature;BMP_pressure;BME280_temperature;BME280_humidity;BME280_pressure;Samples;Min_cycle;Max_cycle;Signal;HPM_P1;HPM_P2
2021/11/03 00:00:22;;;;;;;13.07;10.10;;;8.10;99.90;;;;;;2071270;28;20385;-69
2021/11/03 00:01:23;;;;;;;14.30;10.73;;;8.10;99.90;;;;;;2071291;28;20498;-68
2021/11/03 00:02:25;;;;;;;10.35;9.32;;;8.10;99.90;;;;;;2071079;28;20049;-68
2021/11/03 00:03:26;;;;;;;12.68;10.18;;;8.10;99.90;;;;;;2070946;28;20033;-69
2021/11/03 00:04:26;;;;;;;11.35;10.15;;;8.10;99.90;;;;;;2071443;28;20069;-69
2021/11/03 00:05:28;;;;;;;12.32;9.98;;;8.10;99.90;;;;;;2070987;28;20030;-68
2021/11/03 00:06:28;;;;;;;11.48;9.38;;;8.10;99.90;;;;;;2071294;28;20054;-70
2021/11/03 00:07:30;;;;;;;13.65;10.23;;;8.10;99.90;;;;;;2070908;28;20032;-69
2021/11/03 00:08:32;;;;;;;11.23;10.07;;;8.00;99.90;;;;;;2070602;28;20367;-69
2021/11/03 00:09:32;;;;;;;12.32;10.32;;;8.00;99.90;;;;;;2070455;28;20014;-69
2021/11/03 00:10:33;;;;;;;12.45;10.10;;;8.00;99.90;;;;;;2071225;28;20041;-69
2021/11/03 00:11:35;;;;;;;12.45;9.23;;;8.00;99.90;;;;;;2072911;28;20955;-69
2021/11/03 00:12:36;;;;;;;11.63;10.43;;;8.00;99.90;;;;;;2072898;28;20033;-68
2021/11/03 00:13:37;;;;;;;12.18;9.98;;;8.00;99.90;;;;;;2072402;28;20500;-68
2021/11/03 00:14:38;;;;;;;12.80;9.80;;;7.90;99.90;;;;;;2071835;28;20106;-68
2021/11/03 00:15:39;;;;;;;10.65;9.55;;;7.90;99.90;;;;;;2071999;28;20022;-68
2021/11/03 00:16:40;;;;;;;9.68;8.77;;;7.90;99.90;;;;;;2069361;28;20482;-68
2021/11/03 00:17:40;;;;;;;12.07;10.18;;;7.90;99.90;;;;;;2072538;28;20350;-68
2021/11/03 00:18:41;;;;;;;11.65;9.45;;;7.90;99.90;;;;;;2072137;28;20080;-68
2021/11/03 00:19:41;;;;;;;11.85;9.23;;;7.90;99.90;;;;;;2072612;28;20041;-69
2021/11/03 00:20:42;;;;;;;12.63;10.77;;;7.90;99.90;;;;;;2072508;28;20049;-68
2021/11/03 00:21:43;;;;;;;12.88;10.68;;;7.80;99.90;;;;;;2072747;28;20042;-68
2021/11/03 00:22:43;;;;;;;9.82;8.75;;;7.80;99.90;;;;;;2072313;28;20022;-68
2021/11/03 00:23:44;;;;;;;12.07;9.73;;;7.80;99.90;;;;;;2072793;28;20079;-68
2021/11/03 00:24:45;;;;;;;11.88;10.68;;;7.80;99.90;;;;;;2071646;28;20509;-68
2021/11/03 00:25:46;;;;;;;12.13;10.07;;;7.70;99.90;;;;;;2072790;28;20261;-68
2021/11/03 00:26:46;;;;;;;10.10;8.95;;;7.70;99.90;;;;;;2064520;28;20019;-68
2021/11/03 00:27:47;;;;;;;9.75;8.77;;;7.70;99.90;;;;;;2071793;28;20088;-68
2021/11/03 00:28:47;;;;;;;9.88;8.57;;;7.70;99.90;;;;;;2071653;28;20381;-68
2021/11/03 00:29:48;;;;;;;11.68;10.52;;;7.70;99.90;;;;;;2072601;28;20026;-68
2021/11/03 00:30:51;;;;;;;11.50;9.63;;;7.70;99.90;;;;;;2072264;28;20503;-68
2021/11/03 00:31:52;;;;;;;12.23;9.45;;;7.70;99.90;;;;;;2072931;28;20030;-68
2021/11/03 00:32:53;;;;;;;13.63;10.15;;;7.60;99.90;;;;;;2072503;28;20030;-68
2021/11/03 00:33:53;;;;;;;11.73;9.77;;;7.60;99.90;;;;;;2072637;28;20030;-69
2021/11/03 00:34:54;;;;;;;11.75;10.52;;;7.60;99.90;;;;;;2072283;28;20064;-68
2021/11/03 00:35:55;;;;;;;10.07;9.05;;;7.60;99.90;;;;;;2072225;28;20083;-68
2021/11/03 00:36:55;;;;;;;10.88;9.77;;;7.60;99.90;;;;;;2072227;28;20022;-68
2021/11/03 00:37:56;;;;;;;16.27;10.70;;;7.60;99.90;;;;;;2071755;28;20130;-68
2021/11/03 00:38:56;;;;;;;10.25;9.07;;;7.60;99.90;;;;;;2065361;28;20037;-68
2021/11/03 00:39:57;;;;;;;12.07;9.90;;;7.50;99.90;;;;;;2072644;28;20033;-69
2021/11/03 00:40:58;;;;;;;10.45;9.05;;;7.50;99.90;;;;;;2072057;28;20030;-68
2021/11/03 00:41:59;;;;;;;11.85;10.55;;;7.50;99.90;;;;;;2072759;28;20021;-68
2021/11/03 00:42:59;;;;;;;10.07;9.00;;;7.50;99.90;;;;;;2064083;28;20125;-68
2021/11/03 00:44:00;;;;;;;11.38;9.90;;;7.50;99.90;;;;;;2067718;28;20030;-68
2021/11/03 00:45:00;;;;;;;12.02;10.20;;;7.50;99.90;;;;;;2072340;28;20504;-68
2021/11/03 00:46:02;;;;;;;12.48;10.43;;;7.50;99.90;;;;;;2072545;28;20034;-68
2021/11/03 00:47:02;;;;;;;12.77;11.10;;;7.50;99.90;;;;;;2072312;28;20022;-68
2021/11/03 00:48:03;;;;;;;12.27;10.95;;;7.50;99.90;;;;;;2072401;28;20034;-68
2021/11/03 00:49:04;;;;;;;11.40;9.85;;;7.50;99.90;;;;;;2071824;28;20022;-68
2021/11/03 00:50:05;;;;;;;12.20;10.90;;;7.50;99.90;;;;;;2072202;28;20053;-69
2021/11/03 00:51:05;;;;;;;12.93;10.38;;;7.50;99.90;;;;;;2072099;28;20026;-68
2021/11/03 00:52:06;;;;;;;14.32;11.60;;;7.50;99.90;;;;;;2071974;28;20053;-68
2021/11/03 00:53:08;;;;;;;12.13;10.73;;;7.50;99.90;;;;;;2072215;28;20216;-68
2021/11/03 00:54:09;;;;;;;13.77;10.48;;;7.50;99.90;;;;;;2072426;28;20088;-68
2021/11/03 00:55:10;;;;;;;12.38;10.35;;;7.40;99.90;;;;;;2072388;28;20026;-68
2021/11/03 00:56:11;;;;;;;13.57;10.50;;;7.40;99.90;;;;;;2071870;28;20025;-68
2021/11/03 00:57:11;;;;;;;16.17;12.13;;;7.50;99.90;;;;;;2072280;28;20057;-68
2021/11/03 00:58:12;;;;;;;11.30;9.68;;;7.40;99.90;;;;;;2071704;28;20065;-68
2021/11/03 00:59:13;;;;;;;15.00;10.27;;;7.40;99.90;;;;;;2072301;28;20030;-68
2021/11/03 01:00:15;;;;;;;12.45;10.65;;;7.40;99.90;;;;;;2071203;28;20044;-69
2021/11/03 01:01:16;;;;;;;18.05;13.43;;;7.40;99.90;;;;;;2072528;28;20134;-69
2021/11/03 01:02:17;;;;;;;18.48;13.57;;;7.40;99.90;;;;;;2072014;28;20033;-69
2021/11/03 01:03:18;;;;;;;14.98;13.07;;;7.40;99.90;;;;;;2077691;28;20424;-68
2021/11/03 01:04:19;;;;;;;15.27;11.80;;;7.40;99.90;;;;;;2063331;28;20692;-68
2021/11/03 01:05:22;;;;;;;12.30;10.95;;;7.40;99.90;;;;;;2068826;28;20053;-68
2021/11/03 01:06:23;;;;;;;13.38;11.98;;;7.40;99.90;;;;;;2072149;28;20109;-68
2021/11/03 01:07:24;;;;;;;17.40;12.90;;;7.40;99.90;;;;;;2071831;28;20041;-68
2021/11/03 01:08:25;;;;;;;13.13;11.07;;;7.40;99.90;;;;;;2071379;28;20047;-68
2021/11/03 01:09:25;;;;;;;14.25;11.32;;;7.40;99.90;;;;;;2071490;28;20033;-68
2021/11/03 01:10:26;;;;;;;13.40;11.93;;;7.40;99.90;;;;;;2071409;28;20060;-69
2021/11/03 01:11:27;;;;;;;20.00;15.18;;;7.40;99.90;;;;;;2065567;28;20553;-69
2021/11/03 01:12:28;;;;;;;18.83;15.63;;;7.40;99.90;;;;;;2072012;28;20018;-69
2021/11/03 01:13:28;;;;;;;21.77;15.68;;;7.40;99.90;;;;;;2072329;28;20050;-69
2021/11/03 01:14:29;;;;;;;20.17;15.95;;;7.40;99.90;;;;;;2072090;28;20093;-69
2021/11/03 01:15:30;;;;;;;19.90;16.63;;;7.40;99.90;;;;;;2071846;28;20054;-69
2021/11/03 01:16:31;;;;;;;18.33;15.93;;;7.40;99.90;;;;;;2069202;28;20498;-69
2021/11/03 01:17:32;;;;;;;22.45;15.57;;;7.40;99.90;;;;;;2071877;28;20037;-68
2021/11/03 01:18:33;;;;;;;15.85;13.73;;;7.40;99.90;;;;;;2071361;28;20500;-68
2021/11/03 01:19:34;;;;;;;16.42;12.63;;;7.30;99.90;;;;;;2071706;28;20072;-68
2021/11/03 01:20:36;;;;;;;21.75;16.38;;;7.40;99.90;;;;;;2072153;28;20026;-69
2021/11/03 01:21:38;;;;;;;16.73;13.13;;;7.40;99.90;;;;;;2072173;28;20025;-69
2021/11/03 01:22:39;;;;;;;13.77;12.18;;;7.30;99.90;;;;;;2071275;28;20026;-69
2021/11/03 01:23:40;;;;;;;15.20;12.02;;;7.30;99.90;;;;;;2072343;28;20038;-69
2021/11/03 01:24:41;;;;;;;13.73;12.23;;;7.30;99.90;;;;;;2071774;28;20485;-68
2021/11/03 01:25:41;;;;;;;12.85;11.48;;;7.40;99.90;;;;;;2071757;28;20042;-68
2021/11/03 01:26:42;;;;;;;14.05;11.63;;;7.30;99.90;;;;;;2071096;28;20141;-68
2021/11/03 01:27:43;;;;;;;16.73;13.32;;;7.40;99.90;;;;;;2070785;28;20022;-68
2021/11/03 01:28:43;;;;;;;15.30;11.95;;;7.40;99.90;;;;;;2071494;28;20017;-68
2021/11/03 01:29:44;;;;;;;14.00;11.35;;;7.40;99.90;;;;;;2072160;28;20021;-68
2021/11/03 01:30:45;;;;;;;14.00;11.68;;;7.40;99.90;;;;;;2065253;28;20057;-68
2021/11/03 01:31:46;;;;;;;13.43;10.90;;;7.30;99.90;;;;;;2072185;28;20363;-68
2021/11/03 01:32:47;;;;;;;16.70;14.43;;;7.40;99.90;;;;;;2071566;28;20117;-68
2021/11/03 01:33:49;;;;;;;15.68;13.95;;;7.40;99.90;;;;;;2071394;28;20026;-68
2021/11/03 01:34:49;;;;;;;13.90;12.40;;;7.30;99.90;;;;;;2071192;28;20026;-68
2021/11/03 01:35:50;;;;;;;15.95;13.32;;;7.30;99.90;;;;;;2066302;28;20054;-68
2021/11/03 01:36:50;;;;;;;14.65;11.75;;;7.30;99.90;;;;;;2071988;28;20053;-68
2021/11/03 01:37:51;;;;;;;15.57;12.45;;;7.30;99.90;;;;;;2071958;28;20030;-68
2021/11/03 01:38:52;;;;;;;16.38;12.73;;;7.30;99.90;;;;;;2070231;28;20057;-69
2021/11/03 01:39:52;;;;;;;13.95;11.82;;;7.30;99.90;;;;;;2064047;28;20402;-68
2021/11/03 01:40:53;;;;;;;13.32;11.50;;;7.30;99.90;;;;;;2067962;28;20475;-68
2021/11/03 01:41:54;;;;;;;14.90;11.45;;;7.30;99.90;;;;;;2071848;28;20021;-68
2021/11/03 01:42:55;;;;;;;15.93;13.00;;;7.30;99.90;;;;;;2072065;28;20041;-68
2021/11/03 01:44:16;;;;;;;16.45;12.23;;;7.30;99.90;;;;;;2071919;28;20025;-69
2021/11/03 01:45:19;;;;;;;12.55;11.18;;;7.30;99.90;;;;;;2071231;28;20065;-69
2021/11/03 01:46:20;;;;;;;15.07;12.32;;;7.20;99.90;;;;;;2066414;28;20299;-69
2021/11/03 01:47:42;;;;;;;13.38;11.98;;;7.20;99.90;;;;;;2071294;28;20153;-68
2021/11/03 01:48:43;;;;;;;14.75;11.32;;;7.20;99.90;;;;;;2064040;28;20077;-69
2021/11/03 01:49:44;;;;;;;15.07;11.48;;;7.20;99.90;;;;;;2071068;28;20119;-69
2021/11/03 01:50:49;;;;;;;15.70;11.85;;;7.20;99.90;;;;;;2070998;28;20057;-69
2021/11/03 01:52:04;;;;;;;13.57;12.15;;;7.20;99.90;;;;;;2070769;28;20024;-68
2021/11/03 01:53:14;;;;;;;13.13;11.23;;;7.20;99.90;;;;;;2071519;28;20033;-68
2021/11/03 01:54:18;;;;;;;19.33;13.25;;;7.10;99.90;;;;;;2070847;28;20076;-68
2021/11/03 01:55:20;;;;;;;13.18;11.45;;;7.10;99.90;;;;;;2071893;28;20105;-68
2021/11/03 01:56:21;;;;;;;14.18;12.32;;;7.10;99.90;;;;;;2071911;28;20436;-68
2021/11/03 01:57:29;;;;;;;15.20;12.45;;;7.10;99.90;;;;;;2071724;28;20034;-68
2021/11/03 01:58:55;;;;;;;15.20;12.35;;;7.10;99.90;;;;;;2071184;28;20389;-68
2021/11/03 02:00:00;;;;;;;11.95;10.35;;;7.10;99.90;;;;;;2069346;28;20493;-69
2021/11/03 02:01:01;;;;;;;12.90;10.60;;;7.00;99.90;;;;;;2072474;28;20044;-69
2021/11/03 02:02:04;;;;;;;15.57;12.13;;;7.00;99.90;;;;;;2071729;28;20057;-68
2021/11/03 02:03:10;;;;;;;15.75;11.57;;;7.00;99.90;;;;;;2071913;28;20033;-69
2021/11/03 02:04:11;;;;;;;13.98;11.85;;;7.00;99.90;;;;;;2069224;28;20033;-69
2021/11/03 02:05:15;;;;;;;13.95;11.55;;;7.00;99.90;;;;;;2071323;28;20049;-69
2021/11/03 02:06:18;;;;;;;12.73;11.00;;;7.00;99.90;;;;;;2070927;28;20045;-69
2021/11/03 02:07:22;;;;;;;15.40;12.27;;;7.00;99.90;;;;;;2071982;28;20036;-69
2021/11/03 02:08:24;;;;;;;13.48;11.85;;;7.00;99.90;;;;;;2071010;28;20026;-68
2021/11/03 02:09:24;;;;;;;13.10;10.38;;;7.00;99.90;;;;;;2071735;28;20072;-69
2021/11/03 02:10:25;;;;;;;14.38;11.48;;;6.90;99.90;;;;;;2071753;28;20080;-69
2021/11/03 02:11:28;;;;;;;13.77;11.55;;;6.90;99.90;;;;;;2071030;28;20160;-68
2021/11/03 02:12:30;;;;;;;16.52;12.65;;;6.90;99.90;;;;;;2071558;28;20484;-69
2021/11/03 02:13:31;;;;;;;14.77;11.98;;;6.90;99.90;;;;;;2071115;28;20160;-68
2021/11/03 02:14:32;;;;;;;12.50;11.20;;;6.90;99.90;;;;;;2071085;28;20350;-68
2021/11/03 02:15:33;;;;;;;13.98;10.52;;;6.90;99.90;;;;;;2071372;28;20026;-68
2021/11/03 02:16:37;;;;;;;14.63;10.77;;;6.90;99.90;;;;;;2071160;28;20552;-68
2021/11/03 02:17:38;;;;;;;13.38;11.63;;;6.90;99.90;;;;;;2071831;28;20029;-68
2021/11/03 02:18:40;;;;;;;12.70;11.40;;;6.90;99.90;;;;;;2070989;28;20029;-69
2021/11/03 02:19:42;;;;;;;16.42;12.18;;;6.90;99.90;;;;;;2071513;28;20029;-68
2021/11/03 02:20:45;;;;;;;14.20;11.48;;;6.90;99.90;;;;;;2071474;28;20105;-69
2021/11/03 02:22:22;;;;;;;15.93;11.30;;;6.80;99.90;;;;;;2071876;28;20081;-69
2021/11/03 02:23:44;;;;;;;15.07;11.80;;;6.80;99.90;;;;;;2070405;28;20037;-68
2021/11/03 02:25:13;;;;;;;15.23;13.65;;;6.80;99.90;;;;;;2067201;28;20033;-69
2021/11/03 02:26:22;;;;;;;15.27;11.98;;;6.70;99.90;;;;;;2070942;28;20037;-69
2021/11/03 02:27:25;;;;;;;13.32;11.20;;;6.70;99.90;;;;;;2071763;28;20484;-68
2021/11/03 02:28:27;;;;;;;20.60;14.55;;;6.70;99.90;;;;;;2070775;28;20161;-68
2021/11/03 02:29:28;;;;;;;16.98;13.13;;;6.80;99.90;;;;;;2071127;28;20057;-68
2021/11/03 02:30:29;;;;;;;15.70;12.75;;;6.80;99.90;;;;;;2071154;28;20022;-68
2021/11/03 02:31:58;;;;;;;16.45;13.18;;;6.80;99.90;;;;;;2071752;28;20029;-69
2021/11/03 02:33:04;;;;;;;15.65;11.70;;;6.70;99.90;;;;;;2071416;28;20034;-69
2021/11/03 02:34:08;;;;;;;14.57;12.10;;;6.80;99.90;;;;;;2071388;28;20053;-71
2021/11/03 02:35:12;;;;;;;15.82;12.70;;;6.70;99.90;;;;;;2071411;28;20029;-69
2021/11/03 02:36:12;;;;;;;17.48;12.82;;;6.70;99.90;;;;;;2071146;28;20532;-69
2021/11/03 02:37:28;;;;;;;17.02;12.45;;;6.80;99.90;;;;;;2071492;28;20516;-69
2021/11/03 02:38:33;;;;;;;16.10;13.13;;;6.70;99.90;;;;;;2071383;28;20442;-69
2021/11/03 02:39:37;;;;;;;13.40;11.50;;;6.70;99.90;;;;;;2071377;28;20013;-69
2021/11/03 02:40:51;;;;;;;19.42;12.40;;;6.70;99.90;;;;;;2071530;28;20065;-69
2021/11/03 02:41:53;;;;;;;19.15;13.32;;;6.70;99.90;;;;;;2070574;28;20026;-69
2021/11/03 02:42:58;;;;;;;16.20;12.48;;;6.70;99.90;;;;;;2069328;28;20366;-69
2021/11/03 02:44:10;;;;;;;15.70;13.05;;;6.70;99.90;;;;;;2071516;28;20390;-69
2021/11/03 02:45:39;;;;;;;15.93;13.25;;;6.80;99.90;;;;;;2071641;28;20090;-68
2021/11/03 02:46:39;;;;;;;20.73;12.63;;;6.70;99.90;;;;;;2068661;28;20064;-68
2021/11/03 02:47:40;;;;;;;17.75;12.90;;;6.70;99.90;;;;;;2070514;28;20037;-68
2021/11/03 02:48:42;;;;;;;15.43;12.55;;;6.80;99.90;;;;;;2063798;28;20026;-68
2021/11/03 02:49:43;;;;;;;15.35;11.73;;;6.70;99.90;;;;;;2070753;28;20018;-68
2021/11/03 02:51:02;;;;;;;17.25;13.45;;;6.80;99.90;;;;;;2068198;28;20101;-68
2021/11/03 02:52:10;;;;;;;13.88;11.50;;;6.80;99.90;;;;;;2071442;28;20030;-68
2021/11/03 02:53:10;;;;;;;17.08;12.63;;;6.70;99.90;;;;;;2066321;28;20040;-68
2021/11/03 02:54:19;;;;;;;16.63;11.43;;;6.70;99.90;;;;;;2070341;28;20034;-69
2021/11/03 02:55:19;;;;;;;14.98;12.35;;;6.70;99.90;;;;;;2071418;28;20079;-69
2021/11/03 02:56:24;;;;;;;15.90;12.40;;;6.70;99.90;;;;;;2070803;28;20041;-69
2021/11/03 02:57:25;;;;;;;16.45;13.52;;;6.70;99.90;;;;;;2070422;28;20030;-69
2021/11/03 02:58:26;;;;;;;16.05;13.90;;;6.70;99.90;;;;;;2070073;28;20022;-69
2021/11/03 02:59:27;;;;;;;22.38;15.50;;;6.80;99.90;;;;;;2070682;28;20107;-69
2021/11/03 03:00:27;;;;;;;22.55;16.20;;;6.80;99.90;;;;;;2071580;28;20064;-69
2021/11/03 03:01:37;;;;;;;19.63;15.52;;;6.80;99.90;;;;;;2071352;28;20034;-69
2021/11/03 03:02:38;;;;;;;18.15;15.00;;;6.80;99.90;;;;;;2071607;28;20029;-69
2021/11/03 03:03:38;;;;;;;18.98;15.65;;;6.80;99.90;;;;;;2071569;28;20018;-69
2021/11/03 03:04:43;;;;;;;18.73;15.50;;;6.80;99.90;;;;;;2071317;28;20093;-69
2021/11/03 03:05:51;;;;;;;19.02;16.17;;;6.80;99.90;;;;;;2071367;28;20022;-69
2021/11/03 03:06:52;;;;;;;18.98;14.60;;;6.70;99.90;;;;;;2071665;28;20018;-69
2021/11/03 03:07:53;;;;;;;18.63;15.15;;;6.80;99.90;;;;;;2071288;28;20022;-69
2021/11/03 03:08:55;;;;;;;18.40;15.65;;;6.80;99.90;;;;;;2070903;28;20021;-69
2021/11/03 03:09:56;;;;;;;20.38;15.63;;;6.80;99.90;;;;;;2071163;28;20057;-69
2021/11/03 03:10:57;;;;;;;21.63;16.73;;;6.80;99.90;;;;;;2068208;28;20037;-69
2021/11/03 03:12:00;;;;;;;17.27;14.85;;;6.80;99.90;;;;;;2069170;28;20533;-69
2021/11/03 03:13:01;;;;;;;18.33;15.52;;;6.80;99.90;;;;;;2071374;28;20394;-69
2021/11/03 03:14:02;;;;;;;23.25;15.65;;;6.80;99.90;;;;;;2071105;28;20418;-69
2021/11/03 03:15:04;;;;;;;17.75;15.57;;;6.80;99.90;;;;;;2071506;28;20517;-69
2021/11/03 03:16:05;;;;;;;18.70;16.42;;;6.80;99.90;;;;;;2071606;28;20506;-69
2021/11/03 03:17:08;;;;;;;18.48;15.20;;;6.80;99.90;;;;;;2071629;28;20401;-69
2021/11/03 03:18:09;;;;;;;18.60;14.57;;;6.80;99.90;;;;;;2070134;28;20510;-69
2021/11/03 03:19:10;;;;;;;18.92;14.57;;;6.80;99.90;;;;;;2070272;28;20113;-69
2021/11/03 03:20:10;;;;;;;17.88;15.38;;;6.80;99.90;;;;;;2071099;28;20088;-69
2021/11/03 03:21:13;;;;;;;19.30;14.15;;;6.90;99.90;;;;;;2071392;28;20026;-69
2021/11/03 03:22:17;;;;;;;18.83;15.07;;;6.90;99.90;;;;;;2071122;28;20471;-69
2021/11/03 03:23:17;;;;;;;21.02;15.10;;;6.90;99.90;;;;;;2071416;28;20084;-69
2021/11/03 03:24:18;;;;;;;18.30;14.52;;;6.90;99.90;;;;;;2070868;28;20042;-69
2021/11/03 03:25:19;;;;;;;20.08;14.93;;;6.90;99.90;;;;;;2063558;28;20430;-69
2021/11/03 03:26:21;;;;;;;17.13;15.07;;;6.90;99.90;;;;;;2066784;28;20614;-69
2021/11/03 03:27:22;;;;;;;17.30;15.30;;;6.90;99.90;;;;;;2070555;28;20500;-69
2021/11/03 03:28:22;;;;;;;18.13;15.20;;;6.90;99.90;;;;;;2070825;28;20038;-69
2021/11/03 03:29:23;;;;;;;22.85;16.55;;;6.90;99.90;;;;;;2071096;28;20475;-69
2021/11/03 03:30:23;;;;;;;17.83;15.80;;;6.90;99.90;;;;;;2071321;28;20045;-69
2021/11/03 03:31:25;;;;;;;18.80;15.32;;;6.90;99.90;;;;;;2071906;28;20034;-69
2021/11/03 03:32:27;;;;;;;16.63;14.35;;;6.90;99.90;;;;;;2070770;28;20100;-69
2021/11/03 03:33:28;;;;;;;19.20;15.43;;;6.90;99.90;;;;;;2071652;28;20025;-69
2021/11/03 03:34:28;;;;;;;18.88;15.00;;;6.90;99.90;;;;;;2071425;28;20025;-69
2021/11/03 03:35:29;;;;;;;20.67;16.45;;;6.90;99.90;;;;;;2071406;28;20466;-69
2021/11/03 03:36:30;;;;;;;16.88;14.25;;;6.90;99.90;;;;;;2071847;28;20036;-69
2021/11/03 03:37:31;;;;;;;18.58;14.90;;;6.90;99.90;;;;;;2071399;28;20088;-69
2021/11/03 03:38:32;;;;;;;17.98;14.85;;;6.90;99.90;;;;;;2070793;28;20492;-69
2021/11/03 03:39:33;;;;;;;18.58;15.00;;;6.90;99.90;;;;;;2071494;28;20052;-69
2021/11/03 03:40:34;;;;;;;17.40;15.45;;;6.90;99.90;;;;;;2071720;28;20471;-69
2021/11/03 03:41:36;;;;;;;17.75;14.77;;;6.90;99.90;;;;;;2071591;28;20406;-69
2021/11/03 03:42:37;;;;;;;18.88;14.80;;;6.90;99.90;;;;;;2071542;28;20029;-69
2021/11/03 03:43:38;;;;;;;19.33;14.95;;;6.90;99.90;;;;;;2070905;28;20033;-69
2021/11/03 03:44:39;;;;;;;15.95;14.05;;;6.90;99.90;;;;;;2070756;28;20032;-69
2021/11/03 03:45:40;;;;;;;15.73;13.80;;;6.90;99.90;;;;;;2071554;28;20704;-69
2021/11/03 03:46:40;;;;;;;17.90;13.93;;;6.90;99.90;;;;;;2072380;28;20462;-69
2021/11/03 03:47:41;;;;;;;16.73;14.65;;;6.90;99.90;;;;;;2072998;28;20049;-69
2021/11/03 03:48:42;;;;;;;17.27;14.07;;;6.90;99.90;;;;;;2072290;28;20377;-69
2021/11/03 03:49:43;;;;;;;17.85;14.75;;;6.90;99.90;;;;;;2073055;28;20025;-69
2021/11/03 03:50:44;;;;;;;16.25;13.40;;;6.90;99.90;;;;;;2072770;28;20041;-69
2021/11/03 03:51:45;;;;;;;17.13;14.00;;;6.90;99.90;;;;;;2072657;28;20026;-69
2021/11/03 03:52:46;;;;;;;17.27;12.88;;;6.90;99.90;;;;;;2072420;28;20108;-69
2021/11/03 03:53:48;;;;;;;17.27;13.90;;;6.90;99.90;;;;;;2073019;28;20022;-69
2021/11/03 03:54:48;;;;;;;16.67;13.93;;;6.90;99.90;;;;;;2072941;28;20060;-69
2021/11/03 03:55:50;;;;;;;16.65;14.35;;;6.90;99.90;;;;;;2070783;28;20144;-69
2021/11/03 03:56:50;;;;;;;14.88;12.82;;;6.90;99.90;;;;;;2072681;28;20018;-69
2021/11/03 03:57:51;;;;;;;15.20;12.85;;;6.90;99.90;;;;;;2074094;28;20037;-69
2021/11/03 03:58:52;;;;;;;19.95;14.35;;;6.90;99.90;;;;;;2075028;28;20022;-69
2021/11/03 03:59:53;;;;;;;18.45;13.00;;;6.90;99.90;;;;;;2075054;28;20025;-69
2021/11/03 04:00:53;;;;;;;15.52;13.00;;;6.90;99.90;;;;;;2072787;28;20083;-69
2021/11/03 04:01:54;;;;;;;15.05;13.45;;;6.90;99.90;;;;;;2072664;28;20045;-69
2021/11/03 04:02:54;;;;;;;17.80;13.77;;;6.90;99.90;;;;;;2072894;28;20045;-69
2021/11/03 04:03:55;;;;;;;18.65;13.35;;;6.90;99.90;;;;;;2072845;28;20066;-69
2021/11/03 04:04:56;;;;;;;16.45;13.07;;;6.90;99.90;;;;;;2072581;28;20026;-69
2021/11/03 04:05:58;;;;;;;17.00;13.18;;;6.90;99.90;;;;;;2072809;28;20030;-69
2021/11/03 04:06:59;;;;;;;15.63;13.15;;;6.90;99.90;;;;;;2069219;28;20027;-69
2021/11/03 04:08:00;;;;;;;17.10;13.95;;;6.90;99.90;;;;;;2064936;28;20482;-69
2021/11/03 04:09:00;;;;;;;18.13;13.15;;;6.90;99.90;;;;;;2072205;28;20138;-69
2021/11/03 04:10:01;;;;;;;18.40;14.00;;;6.90;99.90;;;;;;2072688;28;20034;-69
2021/11/03 04:11:02;;;;;;;18.83;14.57;;;6.90;99.90;;;;;;2072885;28;20045;-69
2021/11/03 04:12:03;;;;;;;16.70;13.35;;;6.90;99.90;;;;;;2072810;28;20056;-69
2021/11/03 04:13:04;;;;;;;14.45;12.88;;;6.90;99.90;;;;;;2072640;28;20032;-69
2021/11/03 04:14:04;;;;;;;19.13;13.45;;;6.90;99.90;;;;;;2072658;28;20119;-69
2021/11/03 04:15:08;;;;;;;15.55;12.77;;;6.90;99.90;;;;;;2072458;28;20026;-69
2021/11/03 04:16:09;;;;;;;15.70;13.70;;;6.90;99.90;;;;;;2072701;28;20026;-69
2021/11/03 04:17:10;;;;;;;16.85;13.40;;;6.90;99.90;;;;;;2072660;28;20037;-69
2021/11/03 04:18:10;;;;;;;14.73;13.13;;;6.90;99.90;;;;;;2072401;28;20033;-69
2021/11/03 04:19:11;;;;;;;14.20;12.75;;;6.90;99.90;;;;;;2072773;28;20113;-69
2021/11/03 04:20:13;;;;;;;14.15;12.13;;;6.90;99.90;;;;;;2072330;28;20571;-69
2021/11/03 04:21:15;;;;;;;14.63;12.77;;;6.90;99.90;;;;;;2071771;28;20366;-69
2021/11/03 04:22:15;;;;;;;16.75;12.43;;;6.90;99.90;;;;;;2072968;28;20029;-69
2021/11/03 04:23:16;;;;;;;15.88;13.23;;;7.00;99.90;;;;;;2072624;28;20034;-69
2021/11/03 04:24:17;;;;;;;15.25;13.02;;;7.00;99.90;;;;;;2063686;28;20735;-69
2021/11/03 04:25:18;;;;;;;18.60;12.77;;;7.00;99.90;;;;;;2063837;28;20045;-69
2021/11/03 04:26:29;;;;;;;19.30;13.27;;;7.00;99.90;;;;;;2072614;28;20030;-69
2021/11/03 04:27:30;;;;;;;16.25;12.70;;;7.00;99.90;;;;;;2072352;28;20026;-69
2021/11/03 04:28:31;;;;;;;17.02;13.07;;;7.00;99.90;;;;;;2071878;28;20030;-69
2021/11/03 04:29:31;;;;;;;19.73;13.45;;;7.00;99.90;;;;;;2072428;28;20099;-69
2021/11/03 04:30:33;;;;;;;15.85;13.65;;;7.00;99.90;;;;;;2072503;28;20429;-69
2021/11/03 04:31:33;;;;;;;15.77;12.55;;;7.00;99.90;;;;;;2072291;28;20042;-69
2021/11/03 04:32:34;;;;;;;15.02;12.38;;;7.00;99.90;;;;;;2072540;28;20026;-69
2021/11/03 04:33:34;;;;;;;15.38;12.88;;;7.10;99.90;;;;;;2072583;28;20461;-69
2021/11/03 04:34:35;;;;;;;15.35;12.38;;;7.10;99.90;;;;;;2072580;28;20049;-69
2021/11/03 04:35:36;;;;;;;18.35;13.50;;;7.10;99.90;;;;;;2066092;28;20030;-69
2021/11/03 04:36:37;;;;;;;14.80;12.77;;;7.10;99.90;;;;;;2072780;28;20041;-69
2021/11/03 04:37:38;;;;;;;17.98;13.52;;;7.10;99.90;;;;;;2072515;28;20018;-69
2021/11/03 04:38:39;;;;;;;17.92;12.60;;;7.10;99.90;;;;;;2071907;28;20026;-69
2021/11/03 04:39:40;;;;;;;16.92;13.48;;;7.10;99.90;;;;;;2072172;28;20545;-69
2021/11/03 04:40:41;;;;;;;16.63;13.27;;;7.20;99.90;;;;;;2072405;28;20032;-69
2021/11/03 04:41:41;;;;;;;21.15;13.27;;;7.20;99.90;;;;;;2072875;28;20148;-69
2021/11/03 04:42:42;;;;;;;16.42;13.07;;;7.20;99.90;;;;;;2072595;28;20474;-69
2021/11/03 04:43:45;;;;;;;15.48;13.45;;;7.20;99.90;;;;;;2072328;28;20022;-69
2021/11/03 04:44:45;;;;;;;15.65;12.95;;;7.20;99.90;;;;;;2072320;28;20477;-69
2021/11/03 04:45:46;;;;;;;14.07;12.07;;;7.20;99.90;;;;;;2071976;28;20449;-69
2021/11/03 04:46:46;;;;;;;15.15;12.63;;;7.20;99.90;;;;;;2072833;28;20029;-69
2021/11/03 04:47:47;;;;;;;15.82;13.10;;;7.20;99.90;;;;;;2072173;28;20084;-69
2021/11/03 04:48:48;;;;;;;16.35;12.60;;;7.20;99.90;;;;;;2071512;28;20022;-71
2021/11/03 04:49:49;;;;;;;15.57;12.70;;;7.20;99.90;;;;;;2072252;28;20561;-69
2021/11/03 04:50:49;;;;;;;15.10;12.30;;;7.30;99.90;;;;;;2072301;28;20084;-69
2021/11/03 04:51:50;;;;;;;13.88;12.20;;;7.30;99.90;;;;;;2072406;28;20379;-69
2021/11/03 04:52:51;;;;;;;17.30;13.15;;;7.30;99.90;;;;;;2072654;28;20050;-69
2021/11/03 04:53:52;;;;;;;13.57;11.85;;;7.30;99.90;;;;;;2069878;28;20453;-69
2021/11/03 04:54:53;;;;;;;16.27;11.65;;;7.30;99.90;;;;;;2071979;28;20021;-69
2021/11/03 04:55:55;;;;;;;14.20;12.63;;;7.30;99.90;;;;;;2072404;28;20105;-69
2021/11/03 04:56:56;;;;;;;12.90;11.32;;;7.30;99.90;;;;;;2079378;28;21629;-69
2021/11/03 04:57:56;;;;;;;16.67;12.48;;;7.30;99.90;;;;;;2079131;28;20441;-69
2021/11/03 04:58:57;;;;;;;17.65;12.50;;;7.30;99.90;;;;;;2071768;28;20110;-69
2021/11/03 05:00:03;;;;;;;14.27;12.40;;;7.30;99.90;;;;;;2071492;28;20022;-69
2021/11/03 05:01:04;;;;;;;15.18;13.00;;;7.40;99.90;;;;;;2071552;28;20053;-69
2021/11/03 05:02:05;;;;;;;21.45;12.10;;;7.30;99.90;;;;;;2072335;28;20029;-69
2021/11/03 05:03:05;;;;;;;12.68;10.45;;;7.40;99.90;;;;;;2073482;28;20689;-69
2021/11/03 05:04:06;;;;;;;14.35;11.63;;;7.40;99.90;;;;;;2072107;28;20033;-69
2021/11/03 05:05:07;;;;;;;14.25;11.25;;;7.40;99.90;;;;;;2071827;28;20115;-69
2021/11/03 05:06:08;;;;;;;12.68;11.38;;;7.40;99.90;;;;;;2071732;28;20026;-69
2021/11/03 05:07:12;;;;;;;16.05;12.23;;;7.40;99.90;;;;;;2071383;28;20366;-69
2021/11/03 05:08:13;;;;;;;15.90;12.23;;;7.30;99.90;;;;;;2071689;28;20026;-70
2021/11/03 05:09:14;;;;;;;15.35;12.85;;;7.40;99.90;;;;;;2072110;28;20030;-69
2021/11/03 05:10:16;;;;;;;14.77;11.88;;;7.40;99.90;;;;;;2072433;28;20026;-69
2021/11/03 05:11:18;;;;;;;13.80;12.27;;;7.40;99.90;;;;;;2072265;28;20026;-69
2021/11/03 05:12:18;;;;;;;17.50;12.93;;;7.40;99.90;;;;;;2072436;28;20030;-69
2021/11/03 05:13:19;;;;;;;15.48;12.20;;;7.40;99.90;;;;;;2072064;28;20037;-69
2021/11/03 05:14:19;;;;;;;14.70;12.45;;;7.30;99.90;;;;;;2072325;28;20040;-69
2021/11/03 05:15:20;;;;;;;13.95;11.75;;;7.30;99.90;;;;;;2072157;28;20030;-69
2021/11/03 05:16:23;;;;;;;14.30;11.95;;;7.40;99.90;;;;;;2072264;28;20068;-69
2021/11/03 05:17:23;;;;;;;13.32;11.93;;;7.40;99.90;;;;;;2068568;28;20030;-69
2021/11/03 05:18:24;;;;;;;13.82;12.05;;;7.40;99.90;;;;;;2069455;28;20036;-69
2021/11/03 05:19:28;;;;;;;13.10;11.70;;;7.40;99.90;;;;;;2072254;28;20033;-70
2021/11/03 05:20:29;;;;;;;10.88;9.23;;;7.40;99.90;;;;;;2072233;28;20025;-70